sensor_id;sensor_type;location;lat;lon;timestamp;P1;durP1;ratioP1;P2;durP2;ratioP2
18879;SDS011;9572;52.378;13.404;2023-11-21T00:00:16;3.80;;;1.73;;
18879;SDS011;9572;52.378;13.404;2023-11-21T00:02:44;3.03;;;1.60;;
18879;SDS011;9572;52.378;13.404;2023-11-21T00:05:12;2.17;;;1.67;;
18879;SDS011;9572;52.378;13.404;2023-11-21T00:07:41;3.77;;;1.70;;
18879;SDS011;9572;52.378;13.404;2023-11-21T00:10:13;4.60;;;2.10;;
18879;SDS011;9572;52.378;13.404;2023-11-21T00:12:42;5.00;;;1.83;;
18879;SDS011;9572;52.378;13.404;2023-11-21T00:15:15;3.45;;;1.90;;
18879;SDS011;9572;52.378;13.404;2023-11-21T00:17:43;5.73;;;2.10;;
18879;SDS011;9572;52.378;13.404;2023-11-21T00:20:11;4.70;;;2.00;;
18879;SDS011;9572;52.378;13.404;2023-11-21T00:22:39;4.67;;;2.00;;
18879;SDS011;9572;52.378;13.404;2023-11-21T00:25:06;4.35;;;1.80;;
18879;SDS011;9572;52.378;13.404;2023-11-21T00:27:34;4.57;;;1.70;;
18879;SDS011;9572;52.378;13.404;2023-11-21T00:30:01;3.10;;;1.80;;
18879;SDS011;9572;52.378;13.404;2023-11-21T00:32:35;3.83;;;1.90;;
18879;SDS011;9572;52.378;13.404;2023-11-21T00:35:02;5.70;;;1.90;;
18879;SDS011;9572;52.378;13.404;2023-11-21T00:37:30;3.03;;;1.93;;
18879;SDS011;9572;52.378;13.404;2023-11-21T00:39:59;4.57;;;1.80;;
18879;SDS011;9572;52.378;13.404;2023-11-21T00:42:30;5.30;;;2.20;;
18879;SDS011;9572;52.378;13.404;2023-11-21T00:44:59;5.03;;;3.50;;
18879;SDS011;9572;52.378;13.404;2023-11-21T00:47:26;6.33;;;3.83;;
18879;SDS011;9572;52.378;13.404;2023-11-21T00:49:54;5.07;;;4.10;;
18879;SDS011;9572;52.378;13.404;2023-11-21T00:52:22;6.47;;;4.88;;
18879;SDS011;9572;52.378;13.404;2023-11-21T00:54:52;8.60;;;4.70;;
18879;SDS011;9572;52.378;13.404;2023-11-21T00:57:19;6.67;;;5.00;;
18879;SDS011;9572;52.378;13.404;2023-11-21T00:59:46;6.83;;;5.13;;
18879;SDS011;9572;52.378;13.404;2023-11-21T01:02:13;7.93;;;5.23;;
18879;SDS011;9572;52.378;13.404;2023-11-21T01:04:40;7.10;;;5.27;;
18879;SDS011;9572;52.378;13.404;2023-11-21T01:07:10;9.57;;;5.80;;
18879;SDS011;9572;52.378;13.404;2023-11-21T01:09:37;10.50;;;6.80;;
18879;SDS011;9572;52.378;13.404;2023-11-21T01:12:04;9.80;;;7.50;;
18879;SDS011;9572;52.378;13.404;2023-11-21T01:14:32;10.63;;;8.10;;
18879;SDS011;9572;52.378;13.404;2023-11-21T01:17:02;13.43;;;8.43;;
18879;SDS011;9572;52.378;13.404;2023-11-21T01:19:30;14.50;;;9.43;;
18879;SDS011;9572;52.378;13.404;2023-11-21T01:21:57;17.53;;;11.20;;
18879;SDS011;9572;52.378;13.404;2023-11-21T01:24:27;19.63;;;11.30;;
18879;SDS011;9572;52.378;13.404;2023-11-21T01:26:54;20.87;;;11.73;;
18879;SDS011;9572;52.378;13.404;2023-11-21T01:29:22;28.03;;;13.27;;
18879;SDS011;9572;52.378;13.404;2023-11-21T01:31:49;26.00;;;14.30;;
18879;SDS011;9572;52.378;13.404;2023-11-21T01:34:17;26.63;;;13.77;;
18879;SDS011;9572;52.378;13.404;2023-11-21T01:36:45;25.63;;;14.93;;
18879;SDS011;9572;52.378;13.404;2023-11-21T01:39:12;27.63;;;14.47;;
18879;SDS011;9572;52.378;13.404;2023-11-21T01:41:42;24.47;;;14.10;;
18879;SDS011;9572;52.378;13.404;2023-11-21T01:44:11;26.80;;;14.33;;
18879;SDS011;9572;52.378;13.404;2023-11-21T01:46:39;27.67;;;14.53;;
18879;SDS011;9572;52.378;13.404;2023-11-21T01:49:07;31.97;;;16.00;;
18879;SDS011;9572;52.378;13.404;2023-11-21T01:51:38;38.13;;;16.53;;
18879;SDS011;9572;52.378;13.404;2023-11-21T01:54:05;31.17;;;15.40;;
18879;SDS011;9572;52.378;13.404;2023-11-21T01:56:33;34.13;;;15.30;;
18879;SDS011;9572;52.378;13.404;2023-11-21T01:59:02;33.47;;;15.90;;
18879;SDS011;9572;52.378;13.404;2023-11-21T02:01:32;35.30;;;16.53;;
18879;SDS011;9572;52.378;13.404;2023-11-21T02:03:59;38.33;;;16.17;;
18879;SDS011;9572;52.378;13.404;2023-11-21T02:06:26;35.77;;;16.20;;
18879;SDS011;9572;52.378;13.404;2023-11-21T02:08:56;40.47;;;17.07;;
18879;SDS011;9572;52.378;13.404;2023-11-21T02:11:24;40.97;;;17.77;;
18879;SDS011;9572;52.378;13.404;2023-11-21T02:13:52;38.27;;;17.13;;
18879;SDS011;9572;52.378;13.404;2023-11-21T02:16:22;45.53;;;19.20;;
18879;SDS011;9572;52.378;13.404;2023-11-21T02:18:49;48.83;;;19.00;;
18879;SDS011;9572;52.378;13.404;2023-11-21T02:21:18;46.30;;;19.23;;
18879;SDS011;9572;52.378;13.404;2023-11-21T02:23:47;45.43;;;19.10;;
18879;SDS011;9572;52.378;13.404;2023-11-21T02:26:14;44.70;;;19.20;;
18879;SDS011;9572;52.378;13.404;2023-11-21T02:28:42;46.30;;;19.23;;
18879;SDS011;9572;52.378;13.404;2023-11-21T02:31:09;52.03;;;19.60;;
18879;SDS011;9572;52.378;13.404;2023-11-21T02:33:37;48.40;;;19.07;;
18879;SDS011;9572;52.378;13.404;2023-11-21T02:36:04;56.03;;;19.57;;
18879;SDS011;9572;52.378;13.404;2023-11-21T02:38:32;56.00;;;20.93;;
18879;SDS011;9572;52.378;13.404;2023-11-21T02:41:01;50.83;;;19.10;;
18879;SDS011;9572;52.378;13.404;2023-11-21T02:43:29;46.97;;;18.07;;
18879;SDS011;9572;52.378;13.404;2023-11-21T02:45:56;48.73;;;19.43;;
18879;SDS011;9572;52.378;13.404;2023-11-21T02:48:23;47.40;;;18.57;;
18879;SDS011;9572;52.378;13.404;2023-11-21T02:50:50;50.30;;;18.00;;
18879;SDS011;9572;52.378;13.404;2023-11-21T02:53:19;47.43;;;18.30;;
18879;SDS011;9572;52.378;13.404;2023-11-21T02:55:48;44.47;;;17.73;;
18879;SDS011;9572;52.378;13.404;2023-11-21T02:58:17;57.80;;;21.40;;
18879;SDS011;9572;52.378;13.404;2023-11-21T03:00:44;62.93;;;22.53;;
18879;SDS011;9572;52.378;13.404;2023-11-21T03:03:11;55.17;;;20.60;;
18879;SDS011;9572;52.378;13.404;2023-11-21T03:05:40;40.83;;;15.30;;
18879;SDS011;9572;52.378;13.404;2023-11-21T03:08:07;44.63;;;18.53;;
18879;SDS011;9572;52.378;13.404;2023-11-21T03:10:34;34.93;;;15.43;;
18879;SDS011;9572;52.378;13.404;2023-11-21T03:13:01;37.27;;;14.80;;
18879;SDS011;9572;52.378;13.404;2023-11-21T03:15:30;38.87;;;15.33;;
18879;SDS011;9572;52.378;13.404;2023-11-21T03:17:57;40.23;;;16.73;;
18879;SDS011;9572;52.378;13.404;2023-11-21T03:20:25;37.23;;;14.70;;
18879;SDS011;9572;52.378;13.404;2023-11-21T03:22:52;41.00;;;17.43;;
18879;SDS011;9572;52.378;13.404;2023-11-21T03:25:20;39.27;;;15.33;;
18879;SDS011;9572;52.378;13.404;2023-11-21T03:27:49;43.07;;;15.20;;
18879;SDS011;9572;52.378;13.404;2023-11-21T03:30:15;41.77;;;13.90;;
18879;SDS011;9572;52.378;13.404;2023-11-21T03:32:44;34.93;;;13.13;;
18879;SDS011;9572;52.378;13.404;2023-11-21T03:35:11;34.87;;;13.60;;
18879;SDS011;9572;52.378;13.404;2023-11-21T03:37:39;32.80;;;13.17;;
18879;SDS011;9572;52.378;13.404;2023-11-21T03:40:08;21.87;;;10.90;;
18879;SDS011;9572;52.378;13.404;2023-11-21T03:42:35;23.53;;;10.37;;
18879;SDS011;9572;52.378;13.404;2023-11-21T03:45:02;18.40;;;10.23;;
18879;SDS011;9572;52.378;13.404;2023-11-21T03:47:30;21.70;;;11.20;;
18879;SDS011;9572;52.378;13.404;2023-11-21T03:49:58;20.53;;;12.00;;
18879;SDS011;9572;52.378;13.404;2023-11-21T03:52:25;18.10;;;9.27;;
18879;SDS011;9572;52.378;13.404;2023-11-21T03:54:53;16.03;;;9.63;;
18879;SDS011;9572;52.378;13.404;2023-11-21T03:57:21;15.90;;;9.83;;
18879;SDS011;9572;52.378;13.404;2023-11-21T03:59:48;17.83;;;10.57;;
18879;SDS011;9572;52.378;13.404;2023-11-21T04:02:15;16.53;;;9.90;;
18879;SDS011;9572;52.378;13.404;2023-11-21T04:04:42;18.87;;;10.27;;
18879;SDS011;9572;52.378;13.404;2023-11-21T04:07:11;17.33;;;10.13;;
18879;SDS011;9572;52.378;13.404;2023-11-21T04:09:39;17.53;;;9.57;;
18879;SDS011;9572;52.378;13.404;2023-11-21T04:12:06;15.33;;;9.90;;
18879;SDS011;9572;52.378;13.404;2023-11-21T04:14:35;15.73;;;9.20;;
18879;SDS011;9572;52.378;13.404;2023-11-21T04:17:02;14.97;;;9.20;;
18879;SDS011;9572;52.378;13.404;2023-11-21T04:19:29;16.73;;;9.43;;
18879;SDS011;9572;52.378;13.404;2023-11-21T04:21:56;16.57;;;8.97;;
18879;SDS011;9572;52.378;13.404;2023-11-21T04:24:25;13.77;;;9.07;;
18879;SDS011;9572;52.378;13.404;2023-11-21T04:26:52;15.73;;;9.60;;
18879;SDS011;9572;52.378;13.404;2023-11-21T04:29:20;14.07;;;8.40;;
18879;SDS011;9572;52.378;13.404;2023-11-21T04:31:47;14.10;;;8.40;;
18879;SDS011;9572;52.378;13.404;2023-11-21T04:34:15;13.93;;;8.77;;
18879;SDS011;9572;52.378;13.404;2023-11-21T04:36:42;13.60;;;8.83;;
18879;SDS011;9572;52.378;13.404;2023-11-21T04:39:09;14.77;;;8.73;;
18879;SDS011;9572;52.378;13.404;2023-11-21T04:41:38;13.13;;;8.53;;
18879;SDS011;9572;52.378;13.404;2023-11-21T04:44:05;13.90;;;8.57;;
18879;SDS011;9572;52.378;13.404;2023-11-21T04:46:32;12.70;;;8.37;;
18879;SDS011;9572;52.378;13.404;2023-11-21T04:49:00;13.83;;;8.07;;
18879;SDS011;9572;52.378;13.404;2023-11-21T04:51:27;13.53;;;8.03;;
18879;SDS011;9572;52.378;13.404;2023-11-21T04:53:54;13.03;;;8.03;;
18879;SDS011;9572;52.378;13.404;2023-11-21T04:56:22;13.00;;;8.03;;
18879;SDS011;9572;52.378;13.404;2023-11-21T04:58:52;11.20;;;7.33;;
18879;SDS011;9572;52.378;13.404;2023-11-21T05:01:19;12.33;;;7.03;;
18879;SDS011;9572;52.378;13.404;2023-11-21T05:03:46;13.53;;;7.70;;
18879;SDS011;9572;52.378;13.404;2023-11-21T05:06:14;11.93;;;7.87;;
18879;SDS011;9572;52.378;13.404;2023-11-21T05:08:41;10.77;;;7.20;;
18879;SDS011;9572;52.378;13.404;2023-11-21T05:11:09;10.57;;;6.70;;
18879;SDS011;9572;52.378;13.404;2023-11-21T05:13:36;11.37;;;7.33;;
18879;SDS011;9572;52.378;13.404;2023-11-21T05:16:05;10.43;;;6.63;;
18879;SDS011;9572;52.378;13.404;2023-11-21T05:18:33;9.43;;;6.17;;
18879;SDS011;9572;52.378;13.404;2023-11-21T05:21:00;11.40;;;7.07;;
18879;SDS011;9572;52.378;13.404;2023-11-21T05:23:27;10.83;;;7.17;;
18879;SDS011;9572;52.378;13.404;2023-11-21T05:25:54;10.93;;;6.87;;
18879;SDS011;9572;52.378;13.404;2023-11-21T05:28:23;11.67;;;6.40;;
18879;SDS011;9572;52.378;13.404;2023-11-21T05:30:52;8.57;;;5.73;;
18879;SDS011;9572;52.378;13.404;2023-11-21T05:33:30;11.77;;;7.03;;
18879;SDS011;9572;52.378;13.404;2023-11-21T05:35:58;8.47;;;5.93;;
18879;SDS011;9572;52.378;13.404;2023-11-21T05:38:25;10.20;;;6.00;;
18879;SDS011;9572;52.378;13.404;2023-11-21T05:40:52;9.97;;;5.90;;
18879;SDS011;9572;52.378;13.404;2023-11-21T05:43:23;7.20;;;5.53;;
18879;SDS011;9572;52.378;13.404;2023-11-21T05:45:54;8.60;;;5.53;;
18879;SDS011;9572;52.378;13.404;2023-11-21T05:48:22;9.00;;;5.60;;
18879;SDS011;9572;52.378;13.404;2023-11-21T05:50:56;17.10;;;5.50;;
18879;SDS011;9572;52.378;13.404;2023-11-21T05:53:24;9.33;;;5.70;;
18879;SDS011;9572;52.378;13.404;2023-11-21T05:55:54;8.60;;;5.87;;
18879;SDS011;9572;52.378;13.404;2023-11-21T05:58:23;10.90;;;6.27;;
18879;SDS011;9572;52.378;13.404;2023-11-21T06:00:50;10.47;;;6.50;;
18879;SDS011;9572;52.378;13.404;2023-11-21T06:03:17;10.23;;;6.50;;
18879;SDS011;9572;52.378;13.404;2023-11-21T06:05:50;10.77;;;6.33;;
18879;SDS011;9572;52.378;13.404;2023-11-21T06:08:25;9.67;;;6.10;;
18879;SDS011;9572;52.378;13.404;2023-11-21T06:10:52;10.20;;;6.03;;
18879;SDS011;9572;52.378;13.404;2023-11-21T06:13:24;9.90;;;6.07;;
18879;SDS011;9572;52.378;13.404;2023-11-21T06:15:53;9.90;;;6.80;;
18879;SDS011;9572;52.378;13.404;2023-11-21T06:18:24;9.47;;;6.17;;
18879;SDS011;9572;52.378;13.404;2023-11-21T06:20:56;10.07;;;6.57;;
18879;SDS011;9572;52.378;13.404;2023-11-21T06:23:25;10.77;;;6.80;;
18879;SDS011;9572;52.378;13.404;2023-11-21T06:25:52;10.30;;;6.10;;
18879;SDS011;9572;52.378;13.404;2023-11-21T06:28:23;8.87;;;5.60;;
18879;SDS011;9572;52.378;13.404;2023-11-21T06:30:52;7.57;;;5.23;;
18879;SDS011;9572;52.378;13.404;2023-11-21T06:33:23;6.27;;;4.27;;
18879;SDS011;9572;52.378;13.404;2023-11-21T06:35:57;6.10;;;4.23;;
18879;SDS011;9572;52.378;13.404;2023-11-21T06:38:25;7.80;;;5.23;;
18879;SDS011;9572;52.378;13.404;2023-11-21T06:40:54;10.77;;;6.20;;
18879;SDS011;9572;52.378;13.404;2023-11-21T06:43:24;9.43;;;5.70;;
18879;SDS011;9572;52.378;13.404;2023-11-21T06:45:52;9.97;;;5.83;;
18879;SDS011;9572;52.378;13.404;2023-11-21T06:48:19;10.33;;;5.90;;
18879;SDS011;9572;52.378;13.404;2023-11-21T06:50:46;10.33;;;5.77;;
18879;SDS011;9572;52.378;13.404;2023-11-21T06:53:18;9.67;;;6.07;;
18879;SDS011;9572;52.378;13.404;2023-11-21T06:55:45;9.97;;;5.87;;
18879;SDS011;9572;52.378;13.404;2023-11-21T06:58:12;8.93;;;5.87;;
18879;SDS011;9572;52.378;13.404;2023-11-21T07:00:44;9.60;;;5.53;;
18879;SDS011;9572;52.378;13.404;2023-11-21T07:03:13;9.10;;;5.77;;
18879;SDS011;9572;52.378;13.404;2023-11-21T07:05:40;9.60;;;5.00;;
18879;SDS011;9572;52.378;13.404;2023-11-21T07:08:07;8.60;;;5.27;;
18879;SDS011;9572;52.378;13.404;2023-11-21T07:10:38;6.70;;;4.80;;
18879;SDS011;9572;52.378;13.404;2023-11-21T07:13:05;6.27;;;4.23;;
18879;SDS011;9572;52.378;13.404;2023-11-21T07:15:37;6.93;;;4.90;;
18879;SDS011;9572;52.378;13.404;2023-11-21T07:18:04;7.47;;;4.87;;
18879;SDS011;9572;52.378;13.404;2023-11-21T07:20:33;8.13;;;4.93;;
18879;SDS011;9572;52.378;13.404;2023-11-21T07:23:04;9.00;;;5.40;;
18879;SDS011;9572;52.378;13.404;2023-11-21T07:25:32;9.60;;;5.03;;
18879;SDS011;9572;52.378;13.404;2023-11-21T07:28:09;7.83;;;5.00;;
18879;SDS011;9572;52.378;13.404;2023-11-21T07:30:36;6.87;;;4.80;;
18879;SDS011;9572;52.378;13.404;2023-11-21T07:33:04;8.53;;;4.80;;
18879;SDS011;9572;52.378;13.404;2023-11-21T07:35:32;8.03;;;5.10;;
18879;SDS011;9572;52.378;13.404;2023-11-21T07:38:02;8.27;;;5.07;;
18879;SDS011;9572;52.378;13.404;2023-11-21T07:40:34;8.33;;;5.33;;
18879;SDS011;9572;52.378;13.404;2023-11-21T07:43:08;8.43;;;4.80;;
18879;SDS011;9572;52.378;13.404;2023-11-21T07:45:35;8.00;;;5.27;;
18879;SDS011;9572;52.378;13.404;2023-11-21T07:48:02;10.13;;;5.60;;
18879;SDS011;9572;52.378;13.404;2023-11-21T07:50:32;9.60;;;5.83;;
18879;SDS011;9572;52.378;13.404;2023-11-21T07:53:04;8.60;;;5.37;;
18879;SDS011;9572;52.378;13.404;2023-11-21T07:55:32;8.70;;;5.47;;
18879;SDS011;9572;52.378;13.404;2023-11-21T07:58:09;6.50;;;4.83;;
18879;SDS011;9572;52.378;13.404;2023-11-21T08:00:38;9.13;;;5.53;;
18879;SDS011;9572;52.378;13.404;2023-11-21T08:03:05;8.73;;;4.77;;
18879;SDS011;9572;52.378;13.404;2023-11-21T08:05:32;8.47;;;4.93;;
18879;SDS011;9572;52.378;13.404;2023-11-21T08:08:03;6.43;;;4.50;;
18879;SDS011;9572;52.378;13.404;2023-11-21T08:10:33;5.77;;;4.00;;
18879;SDS011;9572;52.378;13.404;2023-11-21T08:13:09;5.00;;;3.73;;
18879;SDS011;9572;52.378;13.404;2023-11-21T08:15:39;6.80;;;4.10;;
18879;SDS011;9572;52.378;13.404;2023-11-21T08:18:10;6.70;;;4.00;;
18879;SDS011;9572;52.378;13.404;2023-11-21T08:20:37;6.37;;;4.20;;
18879;SDS011;9572;52.378;13.404;2023-11-21T08:23:05;5.40;;;3.57;;
18879;SDS011;9572;52.378;13.404;2023-11-21T08:25:32;5.47;;;3.87;;
18879;SDS011;9572;52.378;13.404;2023-11-21T08:28:09;6.93;;;4.17;;
18879;SDS011;9572;52.378;13.404;2023-11-21T08:30:36;8.07;;;4.10;;
18879;SDS011;9572;52.378;13.404;2023-11-21T08:33:03;6.47;;;3.73;;
18879;SDS011;9572;52.378;13.404;2023-11-21T08:35:34;7.70;;;4.40;;
18879;SDS011;9572;52.378;13.404;2023-11-21T08:38:01;7.90;;;4.03;;
18879;SDS011;9572;52.378;13.404;2023-11-21T08:40:30;8.77;;;4.23;;
18879;SDS011;9572;52.378;13.404;2023-11-21T08:43:07;8.23;;;3.90;;
18879;SDS011;9572;52.378;13.404;2023-11-21T08:45:37;11.57;;;5.27;;
18879;SDS011;9572;52.378;13.404;2023-11-21T08:48:04;14.73;;;5.77;;
18879;SDS011;9572;52.378;13.404;2023-11-21T08:50:33;13.30;;;5.43;;
18879;SDS011;9572;52.378;13.404;2023-11-21T08:53:04;16.23;;;5.47;;
18879;SDS011;9572;52.378;13.404;2023-11-21T08:55:33;17.20;;;6.33;;
18879;SDS011;9572;52.378;13.404;2023-11-21T08:58:03;15.20;;;5.63;;
18879;SDS011;9572;52.378;13.404;2023-11-21T09:00:38;13.03;;;5.93;;
18879;SDS011;9572;52.378;13.404;2023-11-21T09:03:06;15.20;;;5.40;;
18879;SDS011;9572;52.378;13.404;2023-11-21T09:05:33;13.73;;;5.40;;
18879;SDS011;9572;52.378;13.404;2023-11-21T09:08:04;15.03;;;6.13;;
18879;SDS011;9572;52.378;13.404;2023-11-21T09:10:35;15.40;;;6.10;;
18879;SDS011;9572;52.378;13.404;2023-11-21T09:13:04;10.57;;;5.43;;
18879;SDS011;9572;52.378;13.404;2023-11-21T09:18:17;17.27;;;6.37;;
18879;SDS011;9572;52.378;13.404;2023-11-21T09:20:44;18.73;;;6.43;;
18879;SDS011;9572;52.378;13.404;2023-11-21T09:23:11;17.97;;;6.67;;
18879;SDS011;9572;52.378;13.404;2023-11-21T09:25:38;21.47;;;7.10;;
18879;SDS011;9572;52.378;13.404;2023-11-21T09:28:05;12.33;;;5.67;;
18879;SDS011;9572;52.378;13.404;2023-11-21T09:30:33;15.63;;;5.37;;
18879;SDS011;9572;52.378;13.404;2023-11-21T09:33:02;14.53;;;4.97;;
18879;SDS011;9572;52.378;13.404;2023-11-21T09:35:30;12.97;;;5.60;;
18879;SDS011;9572;52.378;13.404;2023-11-21T09:37:57;12.10;;;5.13;;
18879;SDS011;9572;52.378;13.404;2023-11-21T09:40:26;15.50;;;5.67;;
18879;SDS011;9572;52.378;13.404;2023-11-21T09:42:54;15.60;;;6.13;;
18879;SDS011;9572;52.378;13.404;2023-11-21T09:45:24;15.00;;;5.70;;
18879;SDS011;9572;52.378;13.404;2023-11-21T09:47:53;14.67;;;5.50;;
18879;SDS011;9572;52.378;13.404;2023-11-21T09:50:22;15.83;;;6.03;;
18879;SDS011;9572;52.378;13.404;2023-11-21T09:52:54;11.73;;;5.13;;
18879;SDS011;9572;52.378;13.404;2023-11-21T09:55:26;14.07;;;5.00;;
18879;SDS011;9572;52.378;13.404;2023-11-21T09:57:55;17.00;;;5.23;;
18879;SDS011;9572;52.378;13.404;2023-11-21T10:00:22;11.30;;;4.53;;
18879;SDS011;9572;52.378;13.404;2023-11-21T10:02:50;14.17;;;5.70;;
18879;SDS011;9572;52.378;13.404;2023-11-21T10:05:18;13.13;;;5.07;;
18879;SDS011;9572;52.378;13.404;2023-11-21T10:07:48;8.97;;;3.33;;
18879;SDS011;9572;52.378;13.404;2023-11-21T10:10:17;7.00;;;3.03;;
18879;SDS011;9572;52.378;13.404;2023-11-21T10:12:48;6.23;;;3.07;;
18879;SDS011;9572;52.378;13.404;2023-11-21T10:15:20;14.77;;;7.13;;
18879;SDS011;9572;52.378;13.404;2023-11-21T10:17:50;5.57;;;3.13;;
18879;SDS011;9572;52.378;13.404;2023-11-21T10:20:19;5.37;;;2.10;;
18879;SDS011;9572;52.378;13.404;2023-11-21T10:22:48;8.33;;;2.63;;
18879;SDS011;9572;52.378;13.404;2023-11-21T10:25:15;6.53;;;2.97;;
18879;SDS011;9572;52.378;13.404;2023-11-21T10:27:46;4.03;;;2.40;;
18879;SDS011;9572;52.378;13.404;2023-11-21T10:30:16;6.50;;;2.57;;
18879;SDS011;9572;52.378;13.404;2023-11-21T10:32:43;5.57;;;2.03;;
18879;SDS011;9572;52.378;13.404;2023-11-21T10:35:11;3.37;;;2.00;;
18879;SDS011;9572;52.378;13.404;2023-11-21T10:37:39;3.93;;;1.90;;
18879;SDS011;9572;52.378;13.404;2023-11-21T10:40:08;4.17;;;2.17;;
18879;SDS011;9572;52.378;13.404;2023-11-21T10:42:37;29.90;;;14.80;;
18879;SDS011;9572;52.378;13.404;2023-11-21T10:45:05;3.93;;;2.43;;
18879;SDS011;9572;52.378;13.404;2023-11-21T10:47:37;3.33;;;1.90;;
18879;SDS011;9572;52.378;13.404;2023-11-21T10:50:05;4.27;;;1.63;;
18879;SDS011;9572;52.378;13.404;2023-11-21T10:52:37;3.67;;;2.10;;
18879;SDS011;9572;52.378;13.404;2023-11-21T10:55:17;3.63;;;2.30;;
18879;SDS011;9572;52.378;13.404;2023-11-21T10:57:46;4.30;;;2.20;;
18879;SDS011;9572;52.378;13.404;2023-11-21T11:00:15;3.77;;;1.80;;
18879;SDS011;9572;52.378;13.404;2023-11-21T11:02:45;3.90;;;2.50;;
18879;SDS011;9572;52.378;13.404;2023-11-21T11:05:14;2.43;;;2.10;;
18879;SDS011;9572;52.378;13.404;2023-11-21T11:07:43;2.63;;;2.00;;
18879;SDS011;9572;52.378;13.404;2023-11-21T11:10:18;3.27;;;1.93;;
18879;SDS011;9572;52.378;13.404;2023-11-21T11:12:47;1.87;;;1.67;;
18879;SDS011;9572;52.378;13.404;2023-11-21T11:15:15;3.07;;;2.10;;
18879;SDS011;9572;52.378;13.404;2023-11-21T11:17:42;3.30;;;2.50;;
18879;SDS011;9572;52.378;13.404;2023-11-21T11:20:12;3.20;;;2.13;;
18879;SDS011;9572;52.378;13.404;2023-11-21T11:22:42;3.20;;;2.27;;
18879;SDS011;9572;52.378;13.404;2023-11-21T11:25:24;6.17;;;2.27;;
18879;SDS011;9572;52.378;13.404;2023-11-21T11:27:59;3.37;;;2.30;;
18879;SDS011;9572;52.378;13.404;2023-11-21T11:30:35;4.00;;;2.43;;
18879;SDS011;9572;52.378;13.404;2023-11-21T11:33:12;5.23;;;2.37;;
18879;SDS011;9572;52.378;13.404;2023-11-21T11:35:52;2.33;;;1.93;;
18879;SDS011;9572;52.378;13.404;2023-11-21T11:38:27;3.70;;;2.50;;
18879;SDS011;9572;52.378;13.404;2023-11-21T11:41:01;3.60;;;2.27;;
18879;SDS011;9572;52.378;13.404;2023-11-21T11:43:34;2.93;;;2.40;;
18879;SDS011;9572;52.378;13.404;2023-11-21T11:46:09;3.93;;;2.70;;
18879;SDS011;9572;52.378;13.404;2023-11-21T11:48:46;4.30;;;3.07;;
18879;SDS011;9572;52.378;13.404;2023-11-21T11:51:36;3.20;;;2.67;;
18879;SDS011;9572;52.378;13.404;2023-11-21T11:54:03;4.53;;;3.00;;
18879;SDS011;9572;52.378;13.404;2023-11-21T11:56:38;5.43;;;3.13;;
18879;SDS011;9572;52.378;13.404;2023-11-21T11:59:13;3.37;;;2.67;;
18879;SDS011;9572;52.378;13.404;2023-11-21T12:01:45;7.27;;;3.63;;
18879;SDS011;9572;52.378;13.404;2023-11-21T12:04:25;3.83;;;3.03;;
18879;SDS011;9572;52.378;13.404;2023-11-21T12:07:00;3.33;;;2.93;;
18879;SDS011;9572;52.378;13.404;2023-11-21T12:09:29;3.50;;;2.90;;
18879;SDS011;9572;52.378;13.404;2023-11-21T12:11:58;3.70;;;3.17;;
18879;SDS011;9572;52.378;13.404;2023-11-21T12:14:27;3.67;;;2.63;;
18879;SDS011;9572;52.378;13.404;2023-11-21T12:16:54;3.00;;;2.67;;
18879;SDS011;9572;52.378;13.404;2023-11-21T12:19:21;5.97;;;3.60;;
18879;SDS011;9572;52.378;13.404;2023-11-21T12:21:49;4.67;;;2.97;;
18879;SDS011;9572;52.378;13.404;2023-11-21T12:24:17;8.73;;;4.30;;
18879;SDS011;9572;52.378;13.404;2023-11-21T12:26:44;4.23;;;3.33;;
18879;SDS011;9572;52.378;13.404;2023-11-21T12:29:11;4.60;;;3.37;;
18879;SDS011;9572;52.378;13.404;2023-11-21T12:31:40;5.53;;;3.37;;
18879;SDS011;9572;52.378;13.404;2023-11-21T12:34:07;5.57;;;3.47;;
18879;SDS011;9572;52.378;13.404;2023-11-21T12:36:36;5.53;;;3.60;;
18879;SDS011;9572;52.378;13.404;2023-11-21T12:39:04;4.20;;;3.27;;
18879;SDS011;9572;52.378;13.404;2023-11-21T12:41:31;7.27;;;3.57;;
18879;SDS011;9572;52.378;13.404;2023-11-21T12:43:58;5.53;;;3.60;;
18879;SDS011;9572;52.378;13.404;2023-11-21T12:46:25;4.73;;;3.50;;
18879;SDS011;9572;52.378;13.404;2023-11-21T12:48:57;3.23;;;2.90;;
18879;SDS011;9572;52.378;13.404;2023-11-21T12:51:24;3.23;;;2.93;;
18879;SDS011;9572;52.378;13.404;2023-11-21T12:53:52;5.40;;;2.77;;
18879;SDS011;9572;52.378;13.404;2023-11-21T12:56:21;3.43;;;3.07;;
18879;SDS011;9572;52.378;13.404;2023-11-21T12:58:49;4.53;;;3.00;;
18879;SDS011;9572;52.378;13.404;2023-11-21T13:01:17;5.13;;;3.20;;
18879;SDS011;9572;52.378;13.404;2023-11-21T13:03:47;3.80;;;2.80;;
18879;SDS011;9572;52.378;13.404;2023-11-21T13:06:18;2.97;;;2.67;;
18879;SDS011;9572;52.378;13.404;2023-11-21T13:08:49;2.70;;;2.50;;
18879;SDS011;9572;52.378;13.404;2023-11-21T13:11:16;3.90;;;2.60;;
18879;SDS011;9572;52.378;13.404;2023-11-21T13:13:44;3.33;;;2.60;;
18879;SDS011;9572;52.378;13.404;2023-11-21T13:16:11;4.10;;;2.90;;
18879;SDS011;9572;52.378;13.404;2023-11-21T13:18:40;3.03;;;2.53;;
18879;SDS011;9572;52.378;13.404;2023-11-21T13:21:08;2.67;;;2.43;;
18879;SDS011;9572;52.378;13.404;2023-11-21T13:23:40;4.27;;;3.20;;
18879;SDS011;9572;52.378;13.404;2023-11-21T13:26:11;4.93;;;2.93;;
18879;SDS011;9572;52.378;13.404;2023-11-21T13:28:39;3.83;;;2.93;;
18879;SDS011;9572;52.378;13.404;2023-11-21T13:31:11;3.90;;;2.77;;
18879;SDS011;9572;52.378;13.404;2023-11-21T13:33:46;3.57;;;2.57;;
18879;SDS011;9572;52.378;13.404;2023-11-21T13:36:19;4.57;;;3.00;;
18879;SDS011;9572;52.378;13.404;2023-11-21T13:38:50;2.90;;;2.50;;
18879;SDS011;9572;52.378;13.404;2023-11-21T13:41:17;3.53;;;2.60;;
18879;SDS011;9572;52.378;13.404;2023-11-21T13:43:44;4.20;;;2.93;;
18879;SDS011;9572;52.378;13.404;2023-11-21T13:46:18;7.20;;;2.63;;
18879;SDS011;9572;52.378;13.404;2023-11-21T13:48:48;3.33;;;2.50;;
18879;SDS011;9572;52.378;13.404;2023-11-21T13:51:20;6.83;;;2.80;;
18879;SDS011;9572;52.378;13.404;2023-11-21T13:53:58;3.27;;;2.40;;
18879;SDS011;9572;52.378;13.404;2023-11-21T13:56:25;3.87;;;2.80;;
18879;SDS011;9572;52.378;13.404;2023-11-21T13:58:54;4.43;;;2.90;;
18879;SDS011;9572;52.378;13.404;2023-11-21T14:01:22;4.87;;;3.13;;
18879;SDS011;9572;52.378;13.404;2023-11-21T14:04:12;9.00;;;5.20;;
18879;SDS011;9572;52.378;13.404;2023-11-21T14:06:45;6.73;;;3.93;;
18879;SDS011;9572;52.378;13.404;2023-11-21T14:09:15;4.60;;;3.50;;
18879;SDS011;9572;52.378;13.404;2023-11-21T14:11:48;7.33;;;4.57;;
18879;SDS011;9572;52.378;13.404;2023-11-21T14:14:17;7.80;;;3.97;;
18879;SDS011;9572;52.378;13.404;2023-11-21T14:16:44;7.20;;;4.10;;
18879;SDS011;9572;52.378;13.404;2023-11-21T14:19:11;9.90;;;6.03;;
18879;SDS011;9572;52.378;13.404;2023-11-21T14:21:42;5.97;;;4.03;;
18879;SDS011;9572;52.378;13.404;2023-11-21T14:24:10;5.27;;;4.03;;
18879;SDS011;9572;52.378;13.404;2023-11-21T14:26:39;6.17;;;4.47;;
18879;SDS011;9572;52.378;13.404;2023-11-21T14:29:07;7.00;;;4.23;;
18879;SDS011;9572;52.378;13.404;2023-11-21T14:31:37;7.93;;;4.40;;
18879;SDS011;9572;52.378;13.404;2023-11-21T14:34:06;7.63;;;4.67;;
18879;SDS011;9572;52.378;13.404;2023-11-21T14:36:33;6.87;;;4.83;;
18879;SDS011;9572;52.378;13.404;2023-11-21T14:39:01;7.80;;;4.33;;
18879;SDS011;9572;52.378;13.404;2023-11-21T14:41:32;8.43;;;4.97;;
18879;SDS011;9572;52.378;13.404;2023-11-21T14:44:02;8.50;;;5.10;;
18879;SDS011;9572;52.378;13.404;2023-11-21T14:46:37;8.37;;;5.37;;
18879;SDS011;9572;52.378;13.404;2023-11-21T14:49:04;13.30;;;7.67;;
18879;SDS011;9572;52.378;13.404;2023-11-21T14:51:44;9.67;;;6.00;;
18879;SDS011;9572;52.378;13.404;2023-11-21T14:54:25;10.20;;;6.07;;